Terminal Aerodrome Forecast
Issued by NWS

Home | Current Version | Previous Version | Text Only | Print | Product List | Glossary On
Versions: 1 2 3 4 5 6 7 8 9 10 11 12 13 14 15 16 17 18 19
000
FTUS45 KBOU 211126
TAFBJC
TAF
KBJC 211126Z 2112/2212 27005KT P6SM FEW220
     FM211700 02007KT P6SM FEW120 SCT220
     FM212100 32013G25KT P6SM VCTS SCT080CB BKN120
      TEMPO 2122/2202 VRB20G35KT -TSRA BKN080CB
     FM220300 25009KT P6SM FEW060 SCT090 BKN120=

USA.gov is the U.S. government's official web portal to all federal, state and local government web resources and services.